sensor_id;sensor_type;location;lat;lon;timestamp;P1;durP1;ratioP1;P2;durP2;ratioP2
8151;SDS011;4117;53.622;9.958;2023-04-24T00:01:33;1.20;;;1.00;;
8151;SDS011;4117;53.622;9.958;2023-04-24T00:04:01;1.77;;;1.30;;
8151;SDS011;4117;53.622;9.958;2023-04-24T00:06:30;1.13;;;0.80;;
8151;SDS011;4117;53.622;9.958;2023-04-24T00:08:59;4.40;;;1.10;;
8151;SDS011;4117;53.622;9.958;2023-04-24T00:11:26;1.57;;;1.00;;
8151;SDS011;4117;53.622;9.958;2023-04-24T00:13:53;1.30;;;0.87;;
8151;SDS011;4117;53.622;9.958;2023-04-24T00:16:20;1.40;;;0.87;;
8151;SDS011;4117;53.622;9.958;2023-04-24T00:18:47;2.17;;;1.33;;
8151;SDS011;4117;53.622;9.958;2023-04-24T00:21:14;1.50;;;1.30;;
8151;SDS011;4117;53.622;9.958;2023-04-24T00:23:44;1.13;;;1.03;;
8151;SDS011;4117;53.622;9.958;2023-04-24T00:26:11;1.73;;;1.07;;
8151;SDS011;4117;53.622;9.958;2023-04-24T00:28:38;1.53;;;1.10;;
8151;SDS011;4117;53.622;9.958;2023-04-24T00:31:05;1.50;;;1.40;;
8151;SDS011;4117;53.622;9.958;2023-04-24T00:33:32;1.37;;;1.07;;
8151;SDS011;4117;53.622;9.958;2023-04-24T00:35:59;1.13;;;1.00;;
8151;SDS011;4117;53.622;9.958;2023-04-24T00:38:26;1.20;;;0.90;;
8151;SDS011;4117;53.622;9.958;2023-04-24T00:40:54;0.83;;;0.83;;
8151;SDS011;4117;53.622;9.958;2023-04-24T00:43:21;1.83;;;1.17;;
8151;SDS011;4117;53.622;9.958;2023-04-24T00:45:49;1.13;;;1.03;;
8151;SDS011;4117;53.622;9.958;2023-04-24T00:48:16;1.93;;;1.00;;
8151;SDS011;4117;53.622;9.958;2023-04-24T00:50:43;1.13;;;0.93;;
8151;SDS011;4117;53.622;9.958;2023-04-24T00:53:10;0.90;;;0.90;;
8151;SDS011;4117;53.622;9.958;2023-04-24T00:55:37;1.00;;;0.90;;
8151;SDS011;4117;53.622;9.958;2023-04-24T00:58:06;1.30;;;0.83;;
8151;SDS011;4117;53.622;9.958;2023-04-24T01:00:33;1.37;;;0.90;;
8151;SDS011;4117;53.622;9.958;2023-04-24T01:03:01;1.70;;;0.90;;
8151;SDS011;4117;53.622;9.958;2023-04-24T01:05:31;0.97;;;0.70;;
8151;SDS011;4117;53.622;9.958;2023-04-24T01:07:59;1.30;;;1.00;;
8151;SDS011;4117;53.622;9.958;2023-04-24T01:10:27;1.30;;;0.80;;
8151;SDS011;4117;53.622;9.958;2023-04-24T01:12:57;1.83;;;1.33;;
8151;SDS011;4117;53.622;9.958;2023-04-24T01:15:26;1.77;;;1.10;;
8151;SDS011;4117;53.622;9.958;2023-04-24T01:17:53;2.30;;;1.07;;
8151;SDS011;4117;53.622;9.958;2023-04-24T01:20:21;3.20;;;1.13;;
8151;SDS011;4117;53.622;9.958;2023-04-24T01:22:51;1.10;;;1.00;;
8151;SDS011;4117;53.622;9.958;2023-04-24T01:25:17;1.07;;;0.80;;
8151;SDS011;4117;53.622;9.958;2023-04-24T01:27:44;0.80;;;0.80;;
8151;SDS011;4117;53.622;9.958;2023-04-24T01:30:12;1.10;;;0.93;;
8151;SDS011;4117;53.622;9.958;2023-04-24T01:32:40;1.10;;;1.00;;
8151;SDS011;4117;53.622;9.958;2023-04-24T01:35:09;1.13;;;0.90;;
8151;SDS011;4117;53.622;9.958;2023-04-24T01:37:36;0.77;;;0.77;;
8151;SDS011;4117;53.622;9.958;2023-04-24T01:40:05;0.90;;;0.80;;
8151;SDS011;4117;53.622;9.958;2023-04-24T01:42:33;0.60;;;0.60;;
8151;SDS011;4117;53.622;9.958;2023-04-24T01:45:02;1.10;;;1.00;;
8151;SDS011;4117;53.622;9.958;2023-04-24T01:47:31;0.93;;;0.90;;
8151;SDS011;4117;53.622;9.958;2023-04-24T01:49:58;1.40;;;0.80;;
8151;SDS011;4117;53.622;9.958;2023-04-24T01:52:25;0.97;;;0.83;;
8151;SDS011;4117;53.622;9.958;2023-04-24T01:54:53;1.10;;;1.00;;
8151;SDS011;4117;53.622;9.958;2023-04-24T01:57:22;1.10;;;0.90;;
8151;SDS011;4117;53.622;9.958;2023-04-24T01:59:50;0.60;;;0.60;;
8151;SDS011;4117;53.622;9.958;2023-04-24T02:02:17;1.07;;;0.50;;
8151;SDS011;4117;53.622;9.958;2023-04-24T02:04:46;3.20;;;0.83;;
8151;SDS011;4117;53.622;9.958;2023-04-24T02:07:13;1.93;;;1.00;;
8151;SDS011;4117;53.622;9.958;2023-04-24T02:09:39;1.10;;;0.80;;
8151;SDS011;4117;53.622;9.958;2023-04-24T02:12:06;0.63;;;0.57;;
8151;SDS011;4117;53.622;9.958;2023-04-24T02:14:35;0.70;;;0.70;;
8151;SDS011;4117;53.622;9.958;2023-04-24T02:17:02;0.93;;;0.73;;
8151;SDS011;4117;53.622;9.958;2023-04-24T02:19:30;0.33;;;0.30;;
8151;SDS011;4117;53.622;9.958;2023-04-24T02:21:56;0.60;;;0.60;;
8151;SDS011;4117;53.622;9.958;2023-04-24T02:24:23;0.53;;;0.50;;
8151;SDS011;4117;53.622;9.958;2023-04-24T02:26:50;0.63;;;0.63;;
8151;SDS011;4117;53.622;9.958;2023-04-24T02:29:17;0.50;;;0.50;;
8151;SDS011;4117;53.622;9.958;2023-04-24T02:31:45;0.40;;;0.40;;
8151;SDS011;4117;53.622;9.958;2023-04-24T02:34:12;0.40;;;0.40;;
8151;SDS011;4117;53.622;9.958;2023-04-24T02:36:39;0.40;;;0.40;;
8151;SDS011;4117;53.622;9.958;2023-04-24T02:39:06;0.50;;;0.50;;
8151;SDS011;4117;53.622;9.958;2023-04-24T02:41:33;0.60;;;0.60;;
8151;SDS011;4117;53.622;9.958;2023-04-24T02:44:00;0.30;;;0.30;;
8151;SDS011;4117;53.622;9.958;2023-04-24T02:46:27;0.50;;;0.50;;
8151;SDS011;4117;53.622;9.958;2023-04-24T02:48:55;0.57;;;0.57;;
8151;SDS011;4117;53.622;9.958;2023-04-24T02:51:22;0.57;;;0.53;;
8151;SDS011;4117;53.622;9.958;2023-04-24T02:53:48;0.83;;;0.70;;
8151;SDS011;4117;53.622;9.958;2023-04-24T02:56:15;0.60;;;0.60;;
8151;SDS011;4117;53.622;9.958;2023-04-24T02:58:42;1.40;;;0.90;;
8151;SDS011;4117;53.622;9.958;2023-04-24T03:01:09;0.60;;;0.60;;
8151;SDS011;4117;53.622;9.958;2023-04-24T03:03:36;0.40;;;0.40;;
8151;SDS011;4117;53.622;9.958;2023-04-24T03:06:04;0.63;;;0.63;;
8151;SDS011;4117;53.622;9.958;2023-04-24T03:08:33;0.60;;;0.47;;
8151;SDS011;4117;53.622;9.958;2023-04-24T03:11:00;0.70;;;0.70;;
8151;SDS011;4117;53.622;9.958;2023-04-24T03:13:27;0.47;;;0.47;;
8151;SDS011;4117;53.622;9.958;2023-04-24T03:15:53;0.50;;;0.50;;
8151;SDS011;4117;53.622;9.958;2023-04-24T03:18:20;0.53;;;0.50;;
8151;SDS011;4117;53.622;9.958;2023-04-24T03:20:47;0.83;;;0.63;;
8151;SDS011;4117;53.622;9.958;2023-04-24T03:23:15;0.77;;;0.60;;
8151;SDS011;4117;53.622;9.958;2023-04-24T03:25:42;0.70;;;0.70;;
8151;SDS011;4117;53.622;9.958;2023-04-24T03:28:09;0.37;;;0.27;;
8151;SDS011;4117;53.622;9.958;2023-04-24T03:30:36;0.60;;;0.60;;
8151;SDS011;4117;53.622;9.958;2023-04-24T03:33:03;0.43;;;0.33;;
8151;SDS011;4117;53.622;9.958;2023-04-24T03:35:30;1.10;;;0.40;;
8151;SDS011;4117;53.622;9.958;2023-04-24T03:37:57;0.80;;;0.80;;
8151;SDS011;4117;53.622;9.958;2023-04-24T03:40:25;0.50;;;0.43;;
8151;SDS011;4117;53.622;9.958;2023-04-24T03:42:54;0.63;;;0.63;;
8151;SDS011;4117;53.622;9.958;2023-04-24T03:45:21;1.57;;;0.60;;
8151;SDS011;4117;53.622;9.958;2023-04-24T03:47:49;0.67;;;0.63;;
8151;SDS011;4117;53.622;9.958;2023-04-24T03:50:15;0.80;;;0.80;;
8151;SDS011;4117;53.622;9.958;2023-04-24T03:52:42;0.40;;;0.40;;
8151;SDS011;4117;53.622;9.958;2023-04-24T03:55:09;0.40;;;0.40;;
8151;SDS011;4117;53.622;9.958;2023-04-24T03:57:39;0.50;;;0.50;;
8151;SDS011;4117;53.622;9.958;2023-04-24T04:00:06;0.87;;;0.43;;
8151;SDS011;4117;53.622;9.958;2023-04-24T04:02:34;0.40;;;0.33;;
8151;SDS011;4117;53.622;9.958;2023-04-24T04:05:01;0.60;;;0.60;;
8151;SDS011;4117;53.622;9.958;2023-04-24T04:07:28;0.40;;;0.40;;
8151;SDS011;4117;53.622;9.958;2023-04-24T04:09:55;0.43;;;0.40;;
8151;SDS011;4117;53.622;9.958;2023-04-24T04:12:22;0.80;;;0.50;;
8151;SDS011;4117;53.622;9.958;2023-04-24T04:14:51;1.00;;;0.67;;
8151;SDS011;4117;53.622;9.958;2023-04-24T04:17:17;0.50;;;0.40;;
8151;SDS011;4117;53.622;9.958;2023-04-24T04:19:44;0.40;;;0.20;;
8151;SDS011;4117;53.622;9.958;2023-04-24T04:22:11;0.63;;;0.53;;
8151;SDS011;4117;53.622;9.958;2023-04-24T04:24:38;0.30;;;0.30;;
8151;SDS011;4117;53.622;9.958;2023-04-24T04:27:05;0.50;;;0.50;;
8151;SDS011;4117;53.622;9.958;2023-04-24T04:29:33;0.70;;;0.60;;
8151;SDS011;4117;53.622;9.958;2023-04-24T04:32:02;0.47;;;0.47;;
8151;SDS011;4117;53.622;9.958;2023-04-24T04:34:29;0.90;;;0.60;;
8151;SDS011;4117;53.622;9.958;2023-04-24T04:36:56;0.50;;;0.43;;
8151;SDS011;4117;53.622;9.958;2023-04-24T04:39:26;0.50;;;0.40;;
8151;SDS011;4117;53.622;9.958;2023-04-24T04:41:54;0.43;;;0.40;;
8151;SDS011;4117;53.622;9.958;2023-04-24T04:44:21;0.27;;;0.27;;
8151;SDS011;4117;53.622;9.958;2023-04-24T04:46:49;0.93;;;0.50;;
8151;SDS011;4117;53.622;9.958;2023-04-24T04:49:19;0.17;;;0.17;;
8151;SDS011;4117;53.622;9.958;2023-04-24T04:51:46;1.33;;;0.57;;
8151;SDS011;4117;53.622;9.958;2023-04-24T04:54:13;0.50;;;0.50;;
8151;SDS011;4117;53.622;9.958;2023-04-24T04:56:40;0.10;;;0.10;;
8151;SDS011;4117;53.622;9.958;2023-04-24T04:59:07;0.30;;;0.30;;
8151;SDS011;4117;53.622;9.958;2023-04-24T05:01:34;0.67;;;0.50;;
8151;SDS011;4117;53.622;9.958;2023-04-24T05:04:01;0.20;;;0.20;;
8151;SDS011;4117;53.622;9.958;2023-04-24T05:06:29;0.43;;;0.40;;
8151;SDS011;4117;53.622;9.958;2023-04-24T05:08:56;0.53;;;0.53;;
8151;SDS011;4117;53.622;9.958;2023-04-24T05:11:23;0.30;;;0.30;;
8151;SDS011;4117;53.622;9.958;2023-04-24T05:13:50;0.73;;;0.50;;
8151;SDS011;4117;53.622;9.958;2023-04-24T05:16:17;0.40;;;0.40;;
8151;SDS011;4117;53.622;9.958;2023-04-24T05:18:44;0.30;;;0.30;;
8151;SDS011;4117;53.622;9.958;2023-04-24T05:21:11;0.37;;;0.37;;
8151;SDS011;4117;53.622;9.958;2023-04-24T05:23:39;0.43;;;0.43;;
8151;SDS011;4117;53.622;9.958;2023-04-24T05:26:06;0.57;;;0.53;;
8151;SDS011;4117;53.622;9.958;2023-04-24T05:28:33;0.50;;;0.50;;
8151;SDS011;4117;53.622;9.958;2023-04-24T05:31:01;0.23;;;0.23;;
8151;SDS011;4117;53.622;9.958;2023-04-24T05:33:28;0.67;;;0.50;;
8151;SDS011;4117;53.622;9.958;2023-04-24T05:35:55;2.10;;;0.60;;
8151;SDS011;4117;53.622;9.958;2023-04-24T05:38:22;0.77;;;0.77;;
8151;SDS011;4117;53.622;9.958;2023-04-24T05:40:51;0.77;;;0.67;;
8151;SDS011;4117;53.622;9.958;2023-04-24T05:43:18;0.47;;;0.30;;
8151;SDS011;4117;53.622;9.958;2023-04-24T05:45:44;1.00;;;0.53;;
8151;SDS011;4117;53.622;9.958;2023-04-24T05:48:11;0.33;;;0.33;;
8151;SDS011;4117;53.622;9.958;2023-04-24T05:50:38;0.23;;;0.23;;
8151;SDS011;4117;53.622;9.958;2023-04-24T05:53:05;0.37;;;0.37;;
8151;SDS011;4117;53.622;9.958;2023-04-24T05:55:32;0.37;;;0.30;;
8151;SDS011;4117;53.622;9.958;2023-04-24T05:58:02;1.80;;;0.60;;
8151;SDS011;4117;53.622;9.958;2023-04-24T06:00:29;0.70;;;0.70;;
8151;SDS011;4117;53.622;9.958;2023-04-24T06:02:57;0.53;;;0.47;;
8151;SDS011;4117;53.622;9.958;2023-04-24T06:05:24;0.67;;;0.50;;
8151;SDS011;4117;53.622;9.958;2023-04-24T06:07:51;0.57;;;0.50;;
8151;SDS011;4117;53.622;9.958;2023-04-24T06:10:18;3.90;;;0.60;;
8151;SDS011;4117;53.622;9.958;2023-04-24T06:12:45;0.40;;;0.40;;
8151;SDS011;4117;53.622;9.958;2023-04-24T06:15:13;0.20;;;0.20;;
8151;SDS011;4117;53.622;9.958;2023-04-24T06:17:40;1.17;;;0.53;;
8151;SDS011;4117;53.622;9.958;2023-04-24T06:20:07;0.73;;;0.50;;
8151;SDS011;4117;53.622;9.958;2023-04-24T06:22:36;0.83;;;0.63;;
8151;SDS011;4117;53.622;9.958;2023-04-24T06:25:05;0.30;;;0.30;;
8151;SDS011;4117;53.622;9.958;2023-04-24T06:27:33;0.70;;;0.40;;
8151;SDS011;4117;53.622;9.958;2023-04-24T06:30:00;0.50;;;0.43;;
8151;SDS011;4117;53.622;9.958;2023-04-24T06:32:28;0.37;;;0.37;;
8151;SDS011;4117;53.622;9.958;2023-04-24T06:34:55;0.43;;;0.40;;
8151;SDS011;4117;53.622;9.958;2023-04-24T06:37:22;0.70;;;0.40;;
8151;SDS011;4117;53.622;9.958;2023-04-24T06:39:50;0.30;;;0.30;;
8151;SDS011;4117;53.622;9.958;2023-04-24T06:42:16;0.27;;;0.27;;
8151;SDS011;4117;53.622;9.958;2023-04-24T06:44:45;0.17;;;0.17;;
8151;SDS011;4117;53.622;9.958;2023-04-24T06:47:12;0.73;;;0.73;;
8151;SDS011;4117;53.622;9.958;2023-04-24T06:49:41;1.07;;;0.50;;
8151;SDS011;4117;53.622;9.958;2023-04-24T06:52:08;0.40;;;0.40;;
8151;SDS011;4117;53.622;9.958;2023-04-24T06:54:35;0.77;;;0.50;;
8151;SDS011;4117;53.622;9.958;2023-04-24T06:57:03;0.80;;;0.40;;
8151;SDS011;4117;53.622;9.958;2023-04-24T06:59:30;0.60;;;0.47;;
8151;SDS011;4117;53.622;9.958;2023-04-24T07:01:57;0.23;;;0.23;;
8151;SDS011;4117;53.622;9.958;2023-04-24T07:04:23;0.40;;;0.40;;
8151;SDS011;4117;53.622;9.958;2023-04-24T07:06:52;0.60;;;0.60;;
8151;SDS011;4117;53.622;9.958;2023-04-24T07:09:20;0.33;;;0.33;;
8151;SDS011;4117;53.622;9.958;2023-04-24T07:11:48;0.50;;;0.50;;
8151;SDS011;4117;53.622;9.958;2023-04-24T07:14:15;0.40;;;0.40;;
8151;SDS011;4117;53.622;9.958;2023-04-24T07:16:42;0.57;;;0.57;;
8151;SDS011;4117;53.622;9.958;2023-04-24T07:19:10;0.50;;;0.50;;
8151;SDS011;4117;53.622;9.958;2023-04-24T07:21:38;0.57;;;0.57;;
8151;SDS011;4117;53.622;9.958;2023-04-24T07:24:07;1.33;;;0.83;;
8151;SDS011;4117;53.622;9.958;2023-04-24T07:26:36;0.50;;;0.50;;
8151;SDS011;4117;53.622;9.958;2023-04-24T07:29:04;0.50;;;0.50;;
8151;SDS011;4117;53.622;9.958;2023-04-24T07:31:30;1.00;;;0.80;;
8151;SDS011;4117;53.622;9.958;2023-04-24T07:33:57;0.83;;;0.67;;
8151;SDS011;4117;53.622;9.958;2023-04-24T07:36:24;0.63;;;0.60;;
8151;SDS011;4117;53.622;9.958;2023-04-24T07:38:52;1.47;;;1.10;;
8151;SDS011;4117;53.622;9.958;2023-04-24T07:41:20;1.07;;;0.67;;
8151;SDS011;4117;53.622;9.958;2023-04-24T07:43:47;0.83;;;0.70;;
8151;SDS011;4117;53.622;9.958;2023-04-24T07:46:14;3.77;;;1.00;;
8151;SDS011;4117;53.622;9.958;2023-04-24T07:48:41;1.07;;;0.90;;
8151;SDS011;4117;53.622;9.958;2023-04-24T07:51:08;1.10;;;0.90;;
8151;SDS011;4117;53.622;9.958;2023-04-24T07:53:37;0.97;;;0.67;;
8151;SDS011;4117;53.622;9.958;2023-04-24T07:56:04;1.03;;;0.60;;
8151;SDS011;4117;53.622;9.958;2023-04-24T07:58:32;0.70;;;0.70;;
8151;SDS011;4117;53.622;9.958;2023-04-24T08:00:59;0.93;;;0.90;;
8151;SDS011;4117;53.622;9.958;2023-04-24T08:03:28;0.53;;;0.50;;
8151;SDS011;4117;53.622;9.958;2023-04-24T08:05:55;0.50;;;0.50;;
8151;SDS011;4117;53.622;9.958;2023-04-24T08:08:22;0.97;;;0.80;;
8151;SDS011;4117;53.622;9.958;2023-04-24T08:10:48;1.13;;;0.97;;
8151;SDS011;4117;53.622;9.958;2023-04-24T08:13:15;1.00;;;0.90;;
8151;SDS011;4117;53.622;9.958;2023-04-24T08:15:44;0.80;;;0.73;;
8151;SDS011;4117;53.622;9.958;2023-04-24T08:18:11;0.80;;;0.67;;
8151;SDS011;4117;53.622;9.958;2023-04-24T08:20:38;0.60;;;0.60;;
8151;SDS011;4117;53.622;9.958;2023-04-24T08:23:05;0.70;;;0.50;;
8151;SDS011;4117;53.622;9.958;2023-04-24T08:25:32;1.23;;;1.13;;
8151;SDS011;4117;53.622;9.958;2023-04-24T08:28:00;1.73;;;1.00;;
8151;SDS011;4117;53.622;9.958;2023-04-24T08:30:28;1.03;;;0.97;;
8151;SDS011;4117;53.622;9.958;2023-04-24T08:32:56;3.57;;;0.70;;
8151;SDS011;4117;53.622;9.958;2023-04-24T08:35:23;0.73;;;0.70;;
8151;SDS011;4117;53.622;9.958;2023-04-24T08:37:51;1.03;;;0.93;;
8151;SDS011;4117;53.622;9.958;2023-04-24T08:40:18;1.30;;;1.10;;
8151;SDS011;4117;53.622;9.958;2023-04-24T08:42:53;0.90;;;0.80;;
8151;SDS011;4117;53.622;9.958;2023-04-24T08:45:21;3.20;;;0.93;;
8151;SDS011;4117;53.622;9.958;2023-04-24T08:47:49;1.33;;;0.73;;
8151;SDS011;4117;53.622;9.958;2023-04-24T08:50:19;1.33;;;1.13;;
8151;SDS011;4117;53.622;9.958;2023-04-24T08:52:46;1.03;;;0.93;;
8151;SDS011;4117;53.622;9.958;2023-04-24T08:55:15;1.53;;;1.03;;
8151;SDS011;4117;53.622;9.958;2023-04-24T08:57:43;0.53;;;0.53;;
8151;SDS011;4117;53.622;9.958;2023-04-24T09:00:11;1.03;;;0.80;;
8151;SDS011;4117;53.622;9.958;2023-04-24T09:02:40;1.57;;;1.00;;
8151;SDS011;4117;53.622;9.958;2023-04-24T09:05:09;1.80;;;1.10;;
8151;SDS011;4117;53.622;9.958;2023-04-24T09:07:38;1.40;;;1.10;;
8151;SDS011;4117;53.622;9.958;2023-04-24T09:10:07;1.63;;;1.03;;
8151;SDS011;4117;53.622;9.958;2023-04-24T09:12:35;1.50;;;1.20;;
8151;SDS011;4117;53.622;9.958;2023-04-24T09:15:02;3.70;;;1.07;;
8151;SDS011;4117;53.622;9.958;2023-04-24T09:17:30;0.90;;;0.80;;
8151;SDS011;4117;53.622;9.958;2023-04-24T09:20:00;1.20;;;1.10;;
8151;SDS011;4117;53.622;9.958;2023-04-24T09:22:29;1.13;;;0.80;;
8151;SDS011;4117;53.622;9.958;2023-04-24T09:25:01;1.97;;;1.33;;
8151;SDS011;4117;53.622;9.958;2023-04-24T09:27:30;1.53;;;1.43;;
8151;SDS011;4117;53.622;9.958;2023-04-24T09:29:58;1.60;;;1.30;;
8151;SDS011;4117;53.622;9.958;2023-04-24T09:32:26;1.33;;;1.10;;
8151;SDS011;4117;53.622;9.958;2023-04-24T09:35:08;1.13;;;1.00;;
8151;SDS011;4117;53.622;9.958;2023-04-24T09:37:36;1.23;;;0.97;;
8151;SDS011;4117;53.622;9.958;2023-04-24T09:40:12;1.17;;;1.00;;
8151;SDS011;4117;53.622;9.958;2023-04-24T09:42:43;1.20;;;0.93;;
8151;SDS011;4117;53.622;9.958;2023-04-24T09:45:11;1.63;;;1.10;;
8151;SDS011;4117;53.622;9.958;2023-04-24T09:47:38;0.70;;;0.70;;
8151;SDS011;4117;53.622;9.958;2023-04-24T09:50:09;1.23;;;1.13;;
8151;SDS011;4117;53.622;9.958;2023-04-24T09:52:39;1.37;;;1.10;;
8151;SDS011;4117;53.622;9.958;2023-04-24T09:55:10;1.73;;;1.30;;
8151;SDS011;4117;53.622;9.958;2023-04-24T09:57:48;2.47;;;2.27;;
8151;SDS011;4117;53.622;9.958;2023-04-24T10:00:22;1.37;;;1.07;;
8151;SDS011;4117;53.622;9.958;2023-04-24T10:02:51;2.17;;;1.10;;
8151;SDS011;4117;53.622;9.958;2023-04-24T10:05:25;2.43;;;1.40;;
8151;SDS011;4117;53.622;9.958;2023-04-24T10:07:57;1.37;;;1.27;;
8151;SDS011;4117;53.622;9.958;2023-04-24T10:10:29;1.53;;;1.13;;
8151;SDS011;4117;53.622;9.958;2023-04-24T10:12:56;1.73;;;1.40;;
8151;SDS011;4117;53.622;9.958;2023-04-24T10:15:23;1.30;;;1.10;;
8151;SDS011;4117;53.622;9.958;2023-04-24T10:17:52;1.70;;;1.17;;
8151;SDS011;4117;53.622;9.958;2023-04-24T10:20:20;1.27;;;0.97;;
8151;SDS011;4117;53.622;9.958;2023-04-24T10:22:49;2.33;;;1.20;;
8151;SDS011;4117;53.622;9.958;2023-04-24T10:25:18;1.90;;;1.23;;
8151;SDS011;4117;53.622;9.958;2023-04-24T10:27:48;2.30;;;1.43;;
8151;SDS011;4117;53.622;9.958;2023-04-24T10:30:16;1.80;;;1.33;;
8151;SDS011;4117;53.622;9.958;2023-04-24T10:32:44;1.40;;;1.27;;
8151;SDS011;4117;53.622;9.958;2023-04-24T10:35:12;1.87;;;1.23;;
8151;SDS011;4117;53.622;9.958;2023-04-24T10:37:42;2.27;;;1.43;;
8151;SDS011;4117;53.622;9.958;2023-04-24T10:40:11;2.23;;;1.40;;
8151;SDS011;4117;53.622;9.958;2023-04-24T10:42:43;1.70;;;1.53;;
8151;SDS011;4117;53.622;9.958;2023-04-24T10:45:18;1.33;;;1.23;;
8151;SDS011;4117;53.622;9.958;2023-04-24T10:47:52;2.30;;;1.53;;
8151;SDS011;4117;53.622;9.958;2023-04-24T10:50:22;1.77;;;1.20;;
8151;SDS011;4117;53.622;9.958;2023-04-24T10:52:49;1.03;;;0.93;;
8151;SDS011;4117;53.622;9.958;2023-04-24T10:55:29;4.50;;;1.60;;
8151;SDS011;4117;53.622;9.958;2023-04-24T10:58:08;3.60;;;1.60;;
8151;SDS011;4117;53.622;9.958;2023-04-24T11:00:36;1.87;;;1.63;;
8151;SDS011;4117;53.622;9.958;2023-04-24T11:03:04;2.80;;;1.43;;
8151;SDS011;4117;53.622;9.958;2023-04-24T11:05:50;2.00;;;1.37;;
8151;SDS011;4117;53.622;9.958;2023-04-24T11:08:24;1.37;;;1.27;;
8151;SDS011;4117;53.622;9.958;2023-04-24T11:10:59;1.57;;;1.27;;
8151;SDS011;4117;53.622;9.958;2023-04-24T11:16:31;2.07;;;1.20;;
8151;SDS011;4117;53.622;9.958;2023-04-24T11:19:03;2.23;;;1.50;;
8151;SDS011;4117;53.622;9.958;2023-04-24T11:21:31;1.73;;;1.33;;
8151;SDS011;4117;53.622;9.958;2023-04-24T11:23:58;1.83;;;1.20;;
8151;SDS011;4117;53.622;9.958;2023-04-24T11:26:53;2.13;;;1.33;;
8151;SDS011;4117;53.622;9.958;2023-04-24T11:29:21;1.70;;;1.30;;
8151;SDS011;4117;53.622;9.958;2023-04-24T11:31:50;2.23;;;1.50;;
8151;SDS011;4117;53.622;9.958;2023-04-24T11:34:17;1.97;;;1.40;;
8151;SDS011;4117;53.622;9.958;2023-04-24T11:36:44;2.80;;;1.80;;
8151;SDS011;4117;53.622;9.958;2023-04-24T11:39:12;1.97;;;1.20;;
8151;SDS011;4117;53.622;9.958;2023-04-24T11:41:39;4.97;;;1.80;;
8151;SDS011;4117;53.622;9.958;2023-04-24T11:44:06;2.97;;;1.30;;
8151;SDS011;4117;53.622;9.958;2023-04-24T11:46:34;1.60;;;1.40;;
8151;SDS011;4117;53.622;9.958;2023-04-24T11:49:04;3.37;;;1.73;;
8151;SDS011;4117;53.622;9.958;2023-04-24T11:51:31;2.07;;;1.37;;
8151;SDS011;4117;53.622;9.958;2023-04-24T11:53:58;1.57;;;1.30;;
8151;SDS011;4117;53.622;9.958;2023-04-24T11:56:25;2.27;;;1.47;;
8151;SDS011;4117;53.622;9.958;2023-04-24T11:58:52;3.03;;;1.73;;
8151;SDS011;4117;53.622;9.958;2023-04-24T12:01:20;3.43;;;1.80;;
8151;SDS011;4117;53.622;9.958;2023-04-24T12:03:48;1.77;;;1.40;;
8151;SDS011;4117;53.622;9.958;2023-04-24T12:06:17;2.13;;;1.50;;
8151;SDS011;4117;53.622;9.958;2023-04-24T12:08:48;1.83;;;1.40;;
8151;SDS011;4117;53.622;9.958;2023-04-24T12:11:15;2.10;;;1.40;;
8151;SDS011;4117;53.622;9.958;2023-04-24T12:13:45;2.13;;;1.50;;
8151;SDS011;4117;53.622;9.958;2023-04-24T12:16:12;2.53;;;1.37;;
8151;SDS011;4117;53.622;9.958;2023-04-24T12:18:43;1.60;;;1.27;;
8151;SDS011;4117;53.622;9.958;2023-04-24T12:21:19;1.43;;;1.20;;
8151;SDS011;4117;53.622;9.958;2023-04-24T12:23:47;2.30;;;1.60;;
8151;SDS011;4117;53.622;9.958;2023-04-24T12:26:16;1.43;;;1.23;;
8151;SDS011;4117;53.622;9.958;2023-04-24T12:28:46;1.50;;;1.17;;
8151;SDS011;4117;53.622;9.958;2023-04-24T12:31:14;1.93;;;1.00;;
8151;SDS011;4117;53.622;9.958;2023-04-24T12:33:41;1.90;;;1.10;;
8151;SDS011;4117;53.622;9.958;2023-04-24T12:36:09;1.13;;;1.03;;
8151;SDS011;4117;53.622;9.958;2023-04-24T12:38:38;1.67;;;1.30;;
8151;SDS011;4117;53.622;9.958;2023-04-24T12:41:10;2.60;;;1.40;;
8151;SDS011;4117;53.622;9.958;2023-04-24T12:43:38;2.83;;;1.33;;
8151;SDS011;4117;53.622;9.958;2023-04-24T12:46:16;1.70;;;1.30;;
8151;SDS011;4117;53.622;9.958;2023-04-24T12:48:43;1.93;;;1.10;;
8151;SDS011;4117;53.622;9.958;2023-04-24T12:51:10;2.60;;;1.43;;
8151;SDS011;4117;53.622;9.958;2023-04-24T12:53:39;3.63;;;1.70;;
8151;SDS011;4117;53.622;9.958;2023-04-24T12:56:06;2.83;;;1.27;;
8151;SDS011;4117;53.622;9.958;2023-04-24T12:58:33;1.33;;;1.20;;
8151;SDS011;4117;53.622;9.958;2023-04-24T13:01:00;1.40;;;0.90;;
8151;SDS011;4117;53.622;9.958;2023-04-24T13:03:27;3.00;;;1.40;;
8151;SDS011;4117;53.622;9.958;2023-04-24T13:05:54;1.10;;;1.00;;
8151;SDS011;4117;53.622;9.958;2023-04-24T13:08:21;1.30;;;1.03;;
8151;SDS011;4117;53.622;9.958;2023-04-24T13:10:49;3.23;;;1.40;;
8151;SDS011;4117;53.622;9.958;2023-04-24T13:13:17;1.20;;;1.00;;
8151;SDS011;4117;53.622;9.958;2023-04-24T13:15:43;1.50;;;1.40;;
8151;SDS011;4117;53.622;9.958;2023-04-24T13:18:10;1.57;;;1.07;;
8151;SDS011;4117;53.622;9.958;2023-04-24T13:20:37;1.63;;;1.20;;
8151;SDS011;4117;53.622;9.958;2023-04-24T13:23:06;1.80;;;1.20;;
8151;SDS011;4117;53.622;9.958;2023-04-24T13:25:34;2.50;;;1.40;;
8151;SDS011;4117;53.622;9.958;2023-04-24T13:28:03;1.47;;;1.07;;
8151;SDS011;4117;53.622;9.958;2023-04-24T13:30:30;1.40;;;1.03;;
8151;SDS011;4117;53.622;9.958;2023-04-24T13:32:57;1.30;;;1.20;;
8151;SDS011;4117;53.622;9.958;2023-04-24T13:35:24;1.57;;;1.07;;
8151;SDS011;4117;53.622;9.958;2023-04-24T13:37:51;1.27;;;1.03;;
8151;SDS011;4117;53.622;9.958;2023-04-24T13:40:18;1.30;;;1.00;;
8151;SDS011;4117;53.622;9.958;2023-04-24T13:42:45;1.40;;;0.90;;
8151;SDS011;4117;53.622;9.958;2023-04-24T13:45:13;1.13;;;0.90;;
8151;SDS011;4117;53.622;9.958;2023-04-24T13:47:40;1.70;;;1.10;;
8151;SDS011;4117;53.622;9.958;2023-04-24T13:50:07;1.27;;;1.10;;
8151;SDS011;4117;53.622;9.958;2023-04-24T13:52:35;0.97;;;0.87;;
8151;SDS011;4117;53.622;9.958;2023-04-24T13:55:02;2.07;;;1.17;;
8151;SDS011;4117;53.622;9.958;2023-04-24T13:57:29;1.43;;;1.30;;
8151;SDS011;4117;53.622;9.958;2023-04-24T13:59:57;1.63;;;1.17;;
8151;SDS011;4117;53.622;9.958;2023-04-24T14:02:27;1.37;;;1.00;;
8151;SDS011;4117;53.622;9.958;2023-04-24T14:04:54;1.60;;;1.10;;
8151;SDS011;4117;53.622;9.958;2023-04-24T14:07:21;1.67;;;1.10;;
8151;SDS011;4117;53.622;9.958;2023-04-24T14:09:48;1.23;;;1.10;;
8151;SDS011;4117;53.622;9.958;2023-04-24T14:12:15;2.20;;;1.30;;
8151;SDS011;4117;53.622;9.958;2023-04-24T14:14:44;1.63;;;1.20;;
8151;SDS011;4117;53.622;9.958;2023-04-24T14:17:12;1.67;;;1.10;;
8151;SDS011;4117;53.622;9.958;2023-04-24T14:19:40;1.30;;;0.90;;
8151;SDS011;4117;53.622;9.958;2023-04-24T14:22:09;1.90;;;1.40;;
8151;SDS011;4117;53.622;9.958;2023-04-24T14:24:36;1.50;;;1.10;;
8151;SDS011;4117;53.622;9.958;2023-04-24T14:27:03;1.70;;;1.10;;
8151;SDS011;4117;53.622;9.958;2023-04-24T14:29:30;1.30;;;1.10;;
8151;SDS011;4117;53.622;9.958;2023-04-24T14:31:56;2.33;;;1.17;;
8151;SDS011;4117;53.622;9.958;2023-04-24T14:34:23;1.37;;;1.10;;
8151;SDS011;4117;53.622;9.958;2023-04-24T14:36:52;1.30;;;1.10;;
8151;SDS011;4117;53.622;9.958;2023-04-24T14:39:19;1.57;;;1.23;;
8151;SDS011;4117;53.622;9.958;2023-04-24T14:41:46;1.53;;;1.23;;
8151;SDS011;4117;53.622;9.958;2023-04-24T14:44:13;2.00;;;1.10;;
8151;SDS011;4117;53.622;9.958;2023-04-24T14:46:40;1.57;;;1.10;;
8151;SDS011;4117;53.622;9.958;2023-04-24T14:49:08;1.10;;;1.00;;
8151;SDS011;4117;53.622;9.958;2023-04-24T14:51:36;1.83;;;1.23;;
8151;SDS011;4117;53.622;9.958;2023-04-24T14:54:05;1.27;;;1.00;;
8151;SDS011;4117;53.622;9.958;2023-04-24T14:56:32;1.80;;;1.27;;
8151;SDS011;4117;53.622;9.958;2023-04-24T14:58:59;3.03;;;1.30;;
8151;SDS011;4117;53.622;9.958;2023-04-24T15:01:26;1.60;;;1.27;;
8151;SDS011;4117;53.622;9.958;2023-04-24T15:03:53;1.57;;;1.30;;
8151;SDS011;4117;53.622;9.958;2023-04-24T15:06:20;1.10;;;0.90;;
8151;SDS011;4117;53.622;9.958;2023-04-24T15:08:47;1.03;;;0.83;;
8151;SDS011;4117;53.622;9.958;2023-04-24T15:11:15;0.93;;;0.73;;
8151;SDS011;4117;53.622;9.958;2023-04-24T15:13:42;1.13;;;0.90;;
8151;SDS011;4117;53.622;9.958;2023-04-24T15:16:10;1.53;;;0.90;;
8151;SDS011;4117;53.622;9.958;2023-04-24T15:18:37;0.70;;;0.70;;
8151;SDS011;4117;53.622;9.958;2023-04-24T15:21:04;0.50;;;0.50;;
8151;SDS011;4117;53.622;9.958;2023-04-24T15:23:31;0.70;;;0.70;;